Time;durP1;ratioP1;P1;durP2;ratioP2;P2;SDS_P1;SDS_P2;PMS_P1;PMS_P2;Temp;Humidity;BMP_temperature;BMP_pressure;BME280_temperature;BME280_humidity;BME280_pressure;Samples;Min_cycle;Max_cycle;Signal;HPM_P1;HPM_P2
2021/09/29 00:01:49;;;;;;;64.65;59.80;;;;;;;13.96;100.00;101832.50;4967188;28;20055;-79
2021/09/29 00:04:15;;;;;;;64.72;59.92;;;;;;;13.64;100.00;101830.53;4967291;28;20125;-79
2021/09/29 00:06:43;;;;;;;62.67;57.53;;;;;;;12.80;100.00;101832.28;4970683;28;20054;-78
2021/09/29 00:09:10;;;;;;;70.97;65.57;;;;;;;12.84;100.00;101838.84;4967346;28;20058;-78
2021/09/29 00:11:38;;;;;;;89.55;83.05;;;;;;;12.61;100.00;101833.72;4967259;28;20464;-78
2021/09/29 00:14:05;;;;;;;78.43;72.63;;;;;;;12.78;100.00;101842.28;4966838;28;20055;-78
2021/09/29 00:16:32;;;;;;;80.82;74.93;;;;;;;12.69;100.00;101835.44;4971889;28;20058;-80
2021/09/29 00:18:58;;;;;;;86.93;80.72;;;;;;;12.88;100.00;101827.81;4965248;28;20122;-79
2021/09/29 00:21:25;;;;;;;84.57;78.47;;;;;;;13.18;100.00;101823.06;4966639;28;20480;-77
2021/09/29 00:23:52;;;;;;;80.30;74.63;;;;;;;12.77;100.00;101829.16;4968766;28;20059;-78
2021/09/29 00:26:19;;;;;;;66.18;61.38;;;;;;;13.25;100.00;101821.28;4967137;28;20058;-80
2021/09/29 00:28:47;;;;;;;64.47;59.58;;;;;;;12.88;100.00;101828.63;4966586;28;20043;-79
2021/09/29 00:31:25;;;;;;;73.63;68.68;;;;;;;12.93;100.00;101822.72;4956905;28;20051;-79
2021/09/29 00:33:58;;;;;;;58.83;54.78;;;;;;;13.13;100.00;101828.16;4956473;28;20057;-79
2021/09/29 00:36:25;;;;;;;55.00;51.13;;;;;;;13.28;100.00;101826.22;4968475;28;20488;-79
2021/09/29 00:38:52;;;;;;;58.55;54.40;;;;;;;14.68;100.00;101832.03;4969791;28;20147;-78
2021/09/29 00:41:19;;;;;;;58.35;53.95;;;;;;;12.91;100.00;101830.91;4966407;28;20057;-79
2021/09/29 00:43:47;;;;;;;57.65;53.45;;;;;;;12.93;100.00;101838.72;4966266;28;20488;-79
2021/09/29 00:46:14;;;;;;;66.30;61.60;;;;;;;13.23;100.00;101834.00;4956406;28;20047;-80
2021/09/29 00:48:40;;;;;;;69.13;64.03;;;;;;;12.61;100.00;101846.25;4964477;28;20047;-79
2021/09/29 00:51:09;;;;;;;68.40;63.38;;;;;;;12.57;100.00;101840.47;4968561;28;20062;-79
2021/09/29 00:53:36;;;;;;;65.78;60.85;;;;;;;12.69;100.00;101837.31;4971742;28;20046;-78
2021/09/29 00:56:03;;;;;;;64.72;59.63;;;;;;;12.73;100.00;101843.88;4965828;28;20046;-78
2021/09/29 00:58:30;;;;;;;62.28;57.47;;;;;;;12.62;100.00;101847.91;4964006;28;20451;-79
2021/09/29 01:00:58;;;;;;;65.63;60.65;;;;;;;12.57;100.00;101853.81;4964172;28;20047;-79
2021/09/29 01:03:26;;;;;;;61.25;56.47;;;;;;;12.90;100.00;101836.44;4965175;28;20057;-79
2021/09/29 01:05:57;;;;;;;58.28;53.78;;;;;;;12.66;100.00;101833.16;4967239;28;20117;-78
2021/09/29 01:08:30;;;;;;;59.00;54.72;;;;;;;12.87;100.00;101831.50;4972628;28;20484;-78
2021/09/29 01:11:00;;;;;;;63.55;58.95;;;;;;;13.66;100.00;101831.16;4956530;28;20503;-78
2021/09/29 01:13:31;;;;;;;64.63;60.03;;;;;;;12.65;100.00;101834.19;4963954;28;20092;-79
2021/09/29 01:16:03;;;;;;;62.95;58.42;;;;;;;12.95;100.00;101836.66;4967822;28;20054;-79
2021/09/29 01:18:33;;;;;;;60.00;55.70;;;;;;;12.69;100.00;101830.13;4967473;28;20484;-79
2021/09/29 01:21:04;;;;;;;58.67;54.38;;;;;;;12.69;100.00;101830.13;4965449;28;20464;-79
2021/09/29 01:23:45;;;;;;;58.03;53.95;;;;;;;12.69;100.00;101837.31;4968319;28;20054;-80
2021/09/29 01:26:15;;;;;;;58.25;54.22;;;;;;;12.69;100.00;101840.78;4965869;28;20133;-80
2021/09/29 01:28:46;;;;;;;60.72;56.63;;;;;;;12.77;100.00;101843.31;4964745;28;20424;-78
2021/09/29 01:31:13;;;;;;;65.25;61.00;;;;;;;12.59;100.00;101851.78;4967929;28;20161;-78
2021/09/29 01:33:42;;;;;;;56.53;52.72;;;;;;;12.76;100.00;101843.50;4963477;28;20472;-77
2021/09/29 01:36:09;;;;;;;62.67;58.58;;;;;;;13.00;100.00;101840.41;4967805;28;20062;-77
2021/09/29 01:38:40;;;;;;;55.55;51.47;;;;;;;12.91;100.00;101846.06;4970792;28;20050;-79
2021/09/29 01:41:07;;;;;;;55.53;50.95;;;;;;;12.75;100.00;101847.19;4965678;28;20125;-80
2021/09/29 01:43:36;;;;;;;62.17;58.08;;;;;;;13.01;100.00;101857.22;4955638;28;20114;-80
2021/09/29 01:46:03;;;;;;;61.35;57.25;;;;;;;13.05;100.00;101847.81;4964066;28;20063;-79
2021/09/29 01:48:29;;;;;;;54.67;50.58;;;;;;;12.78;100.00;101852.97;4964101;28;20461;-78
2021/09/29 01:50:59;;;;;;;65.47;60.78;;;;;;;12.54;100.00;101854.19;4966849;28;20051;-78
2021/09/29 01:53:32;;;;;;;58.20;53.92;;;;;;;12.45;100.00;101857.16;4971626;28;20050;-77
2021/09/29 01:56:00;;;;;;;67.20;62.90;;;;;;;13.64;100.00;101847.34;4957665;28;20117;-78
2021/09/29 01:58:31;;;;;;;60.72;56.97;;;;;;;13.02;100.00;101853.56;4964043;28;20059;-78
2021/09/29 02:01:14;;;;;;;80.43;75.38;;;;;;;12.68;100.00;101847.16;5065063;23;20047;-79
2021/09/29 02:03:45;;;;;;;84.47;78.97;;;;;;;12.65;100.00;101852.84;4951737;29;20440;-79
2021/09/29 02:06:12;;;;;;;86.97;81.50;;;;;;;12.65;100.00;101852.84;4954337;29;20134;-79
2021/09/29 02:08:38;;;;;;;74.10;69.10;;;;;;;12.35;100.00;101846.84;4953882;29;20043;-79
2021/09/29 02:11:05;;;;;;;79.53;74.43;;;;;;;12.43;100.00;101853.88;4953596;29;20047;-79
2021/09/29 02:13:32;;;;;;;78.68;73.80;;;;;;;12.72;100.00;101852.91;4953267;29;20054;-78
2021/09/29 02:15:59;;;;;;;74.03;69.35;;;;;;;12.74;100.00;101857.03;4954457;29;20066;-81
2021/09/29 02:18:27;;;;;;;73.57;68.78;;;;;;;12.31;100.00;101858.88;4953295;29;20255;-79
2021/09/29 02:20:54;;;;;;;72.28;67.68;;;;;;;12.71;100.00;101861.91;4953332;29;20051;-79
2021/09/29 02:23:22;;;;;;;51.60;47.90;;;;;;;12.43;100.00;101868.00;4953601;29;20055;-79
2021/09/29 02:25:49;;;;;;;52.38;48.78;;;;;;;12.40;100.00;101862.25;4953046;29;20083;-79
2021/09/29 02:28:16;;;;;;;55.90;52.00;;;;;;;12.27;100.00;101862.94;4951667;29;20563;-78
2021/09/29 02:30:43;;;;;;;50.05;46.45;;;;;;;12.20;100.00;101859.38;4953629;29;20055;-79
2021/09/29 02:33:10;;;;;;;47.95;44.33;;;;;;;12.29;100.00;101875.06;4953051;29;20055;-79
2021/09/29 02:35:38;;;;;;;54.60;50.75;;;;;;;12.39;100.00;101869.41;4953238;29;20051;-79
2021/09/29 02:38:05;;;;;;;62.50;57.80;;;;;;;12.46;100.00;101866.81;4952975;29;20118;-78
2021/09/29 02:40:32;;;;;;;68.47;63.38;;;;;;;12.30;100.00;101871.38;4953156;29;20122;-78
2021/09/29 02:42:59;;;;;;;70.38;65.20;;;;;;;12.21;100.00;101863.69;4952964;29;20047;-79
2021/09/29 02:45:26;;;;;;;68.05;63.08;;;;;;;12.31;100.00;101867.69;4951292;29;20043;-78
2021/09/29 02:47:53;;;;;;;71.82;66.53;;;;;;;12.35;100.00;101862.81;4952244;29;20047;-78
2021/09/29 02:50:20;;;;;;;65.25;60.45;;;;;;;12.49;100.00;101859.25;4953171;29;20062;-79
2021/09/29 02:52:48;;;;;;;65.43;60.63;;;;;;;12.54;100.00;101870.16;4952341;29;20474;-79
2021/09/29 02:55:15;;;;;;;62.80;58.17;;;;;;;12.50;100.00;101858.25;4952863;29;20070;-79
2021/09/29 02:57:41;;;;;;;62.53;58.00;;;;;;;12.48;100.00;101867.44;4953574;29;20455;-79
2021/09/29 03:00:10;;;;;;;78.20;72.72;;;;;;;12.52;100.00;101869.53;4952923;29;20062;-79
2021/09/29 03:02:36;;;;;;;78.55;72.95;;;;;;;12.49;100.00;101869.09;4952201;28;20055;-80
2021/09/29 03:05:04;;;;;;;70.45;65.20;;;;;;;12.44;100.00;101868.84;4952173;29;20051;-79
2021/09/29 03:07:30;;;;;;;65.80;60.50;;;;;;;12.49;100.00;101864.56;4952148;29;20474;-78
2021/09/29 03:09:59;;;;;;;64.63;59.90;;;;;;;12.43;100.00;101868.00;4953378;28;20055;-79
2021/09/29 03:12:25;;;;;;;64.38;59.67;;;;;;;12.34;100.00;101864.66;4952475;29;20543;-78
2021/09/29 03:14:52;;;;;;;68.05;63.35;;;;;;;12.41;100.00;101864.72;4952207;29;20051;-79
2021/09/29 03:17:19;;;;;;;61.35;56.72;;;;;;;12.43;100.00;101862.69;4952353;29;20444;-78
2021/09/29 03:19:46;;;;;;;65.05;60.35;;;;;;;12.34;100.00;101864.66;4952453;29;20130;-82
2021/09/29 03:22:12;;;;;;;61.13;56.58;;;;;;;12.42;100.00;101865.53;4947190;29;20052;-78
2021/09/29 03:24:39;;;;;;;60.90;56.35;;;;;;;12.43;100.00;101862.69;4952402;29;20466;-77
2021/09/29 03:27:08;;;;;;;61.47;56.45;;;;;;;12.29;100.00;101859.06;4952614;29;20109;-78
2021/09/29 03:29:36;;;;;;;72.32;66.03;;;;;;;12.32;100.00;101863.19;4952483;29;20069;-79
2021/09/29 03:32:03;;;;;;;76.07;69.07;;;;;;;12.27;100.00;101868.25;4951876;29;20051;-78
2021/09/29 03:34:30;;;;;;;78.15;71.22;;;;;;;12.36;100.00;101859.94;4952456;29;20063;-79
2021/09/29 03:36:57;;;;;;;73.32;66.47;;;;;;;12.44;100.00;101867.00;4953382;29;20526;-78
2021/09/29 03:39:24;;;;;;;80.40;73.72;;;;;;;12.44;100.00;101863.53;4952636;29;20043;-78
2021/09/29 03:41:50;;;;;;;77.82;71.03;;;;;;;12.38;100.00;101865.94;4952510;29;20051;-79
2021/09/29 03:44:19;;;;;;;77.95;71.47;;;;;;;12.45;100.00;101873.16;4951964;29;20055;-77
2021/09/29 03:46:52;;;;;;;80.85;74.07;;;;;;;12.22;100.00;101873.31;4952533;29;20062;-78
2021/09/29 03:49:19;;;;;;;85.30;78.60;;;;;;;12.33;100.00;101870.16;4951706;29;20062;-79
2021/09/29 03:51:46;;;;;;;77.65;71.05;;;;;;;12.31;100.00;101867.69;4953596;29;20051;-78
2021/09/29 03:54:13;;;;;;;80.25;73.75;;;;;;;12.35;100.00;101874.31;4952099;29;20055;-79
2021/09/29 03:56:39;;;;;;;72.03;66.18;;;;;;;12.43;100.00;101870.66;4952281;29;20067;-79
2021/09/29 03:59:06;;;;;;;83.70;75.75;;;;;;;12.33;100.00;101875.50;4951976;29;20476;-78
2021/09/29 04:01:34;;;;;;;80.63;72.43;;;;;;;12.35;100.00;101871.63;4951381;29;20733;-79
2021/09/29 04:04:01;;;;;;;89.35;80.75;;;;;;;12.25;100.00;101884.41;4952224;29;20113;-80
2021/09/29 04:06:28;;;;;;;85.00;76.93;;;;;;;12.31;100.00;101881.00;4952188;29;20054;-80
2021/09/29 04:08:55;;;;;;;85.30;77.00;;;;;;;12.26;100.00;101888.75;4952318;29;20047;-79
2021/09/29 04:11:22;;;;;;;86.35;78.65;;;;;;;12.24;100.00;101888.09;4949350;29;20444;-79
2021/09/29 04:13:49;;;;;;;87.38;80.45;;;;;;;12.24;100.00;101885.44;4952006;29;20066;-78
2021/09/29 04:16:15;;;;;;;85.07;79.47;;;;;;;12.12;100.00;101884.28;4953197;29;20078;-78
2021/09/29 04:18:44;;;;;;;68.57;63.45;;;;;;;12.28;100.00;101891.22;4951639;29;20424;-79
2021/09/29 04:21:12;;;;;;;77.63;72.13;;;;;;;12.28;100.00;101891.22;4953000;28;20118;-78
2021/09/29 04:23:39;;;;;;;75.50;70.32;;;;;;;12.31;100.00;101898.81;4955447;29;20134;-78
2021/09/29 04:26:06;;;;;;;77.70;72.80;;;;;;;12.20;100.00;101897.50;4955544;29;20051;-79
2021/09/29 04:28:33;;;;;;;76.05;70.80;;;;;;;12.26;100.00;101898.59;4946908;29;20043;-78
2021/09/29 04:31:01;;;;;;;70.68;65.78;;;;;;;12.21;100.00;101900.97;4954935;29;20059;-80
2021/09/29 04:33:28;;;;;;;72.57;67.57;;;;;;;12.36;100.00;101907.91;4955115;29;20412;-79
2021/09/29 04:35:56;;;;;;;72.00;66.72;;;;;;;12.23;100.00;101912.28;4956179;29;20389;-78
2021/09/29 04:38:23;;;;;;;69.30;64.40;;;;;;;12.24;100.00;101906.75;4954748;29;20495;-79
2021/09/29 04:40:50;;;;;;;67.95;63.15;;;;;;;12.25;100.00;101911.06;4954896;29;20051;-79
2021/09/29 04:43:17;;;;;;;66.57;61.40;;;;;;;12.27;100.00;101902.91;4954845;29;20471;-78
2021/09/29 04:45:44;;;;;;;71.07;66.25;;;;;;;12.23;100.00;101915.75;4955204;29;20063;-83
2021/09/29 04:48:11;;;;;;;78.78;73.78;;;;;;;12.19;100.00;101911.81;4955954;29;20059;-80
2021/09/29 04:50:38;;;;;;;69.63;64.65;;;;;;;12.09;100.00;101900.63;4954801;29;20051;-79
2021/09/29 04:53:06;;;;;;;77.20;71.80;;;;;;;12.15;100.00;101911.34;4955048;29;20070;-79
2021/09/29 04:55:34;;;;;;;70.10;64.97;;;;;;;12.14;100.00;101906.25;4954940;29;20055;-80
2021/09/29 04:58:02;;;;;;;77.32;71.60;;;;;;;11.99;100.00;101908.94;4950639;29;20097;-79
2021/09/29 05:00:30;;;;;;;75.22;69.80;;;;;;;12.07;100.00;101914.16;4954903;29;20058;-79
2021/09/29 05:02:58;;;;;;;66.47;61.50;;;;;;;12.14;100.00;101914.22;4955130;28;20397;-78
2021/09/29 05:05:25;;;;;;;65.65;60.45;;;;;;;12.17;100.00;101915.69;4954926;29;20063;-79
2021/09/29 05:07:57;;;;;;;60.40;55.92;;;;;;;12.24;100.00;101922.72;4954880;29;20114;-80
2021/09/29 05:10:31;;;;;;;61.13;56.67;;;;;;;12.13;100.00;101924.06;4951105;29;20055;-79
2021/09/29 05:12:59;;;;;;;68.55;63.42;;;;;;;12.13;100.00;101916.06;4954221;29;20359;-81
2021/09/29 05:15:26;;;;;;;68.00;63.28;;;;;;;12.13;100.00;101913.41;4955436;29;20503;-82
2021/09/29 05:17:53;;;;;;;65.18;60.47;;;;;;;12.09;100.00;101912.09;4954198;29;20480;-79
2021/09/29 05:20:20;;;;;;;64.70;59.95;;;;;;;12.17;100.00;101907.72;4954037;29;20058;-78
2021/09/29 05:22:46;;;;;;;71.63;67.07;;;;;;;12.31;100.00;101920.13;4954514;29;20063;-79
2021/09/29 05:25:13;;;;;;;74.90;69.82;;;;;;;12.24;100.00;101920.06;4954099;29;20051;-79
2021/09/29 05:27:41;;;;;;;68.53;63.63;;;;;;;12.22;100.00;101921.25;4955193;29;20059;-79
2021/09/29 05:30:09;;;;;;;71.15;66.22;;;;;;;12.21;100.00;101923.09;4954703;29;20056;-79
2021/09/29 05:32:35;;;;;;;69.15;64.15;;;;;;;12.23;100.00;101930.94;4952724;28;20440;-79
2021/09/29 05:35:02;;;;;;;83.82;78.90;;;;;;;12.15;100.00;101937.19;4954049;29;20055;-79
2021/09/29 05:37:29;;;;;;;69.70;65.00;;;;;;;12.11;100.00;101934.06;4954419;29;20059;-79
2021/09/29 05:39:56;;;;;;;70.07;65.35;;;;;;;12.13;100.00;101932.06;4954768;29;20052;-78
2021/09/29 05:42:22;;;;;;;75.88;70.35;;;;;;;12.40;100.00;101943.00;4953599;29;20573;-79
2021/09/29 05:44:51;;;;;;;63.22;58.88;;;;;;;12.29;100.00;101943.50;4953472;29;20051;-80
2021/09/29 05:47:17;;;;;;;62.30;57.58;;;;;;;12.24;100.00;101945.88;4949467;29;20054;-79
2021/09/29 05:49:44;;;;;;;58.92;54.63;;;;;;;12.17;100.00;101940.50;4954281;29;20051;-82
2021/09/29 05:52:11;;;;;;;61.28;56.38;;;;;;;12.20;100.00;101947.28;4955015;29;20062;-78
2021/09/29 05:54:38;;;;;;;56.17;51.67;;;;;;;12.27;100.00;101942.84;4953443;29;20055;-80
2021/09/29 05:57:05;;;;;;;57.17;52.65;;;;;;;12.30;100.00;101940.63;4953696;29;20526;-80
2021/09/29 05:59:32;;;;;;;61.17;56.80;;;;;;;12.14;100.00;101951.50;4953775;29;20059;-79
2021/09/29 06:02:00;;;;;;;58.40;53.85;;;;;;;12.10;100.00;101947.56;4953163;29;20146;-78
2021/09/29 06:04:26;;;;;;;59.28;54.90;;;;;;;12.23;100.00;101962.88;4953863;29;20059;-79
2021/09/29 06:06:55;;;;;;;58.53;54.33;;;;;;;12.23;100.00;101960.22;4954551;29;20043;-79
2021/09/29 06:09:22;;;;;;;61.88;57.60;;;;;;;12.25;100.00;101964.34;4953603;29;20118;-79
2021/09/29 06:11:48;;;;;;;59.28;54.83;;;;;;;12.20;100.00;101972.06;4953487;29;20063;-79
2021/09/29 06:14:16;;;;;;;55.92;51.90;;;;;;;12.34;100.00;101968.56;4953415;29;20050;-78
2021/09/29 06:16:46;;;;;;;56.72;52.75;;;;;;;12.26;100.00;101966.00;4954357;29;20062;-78
2021/09/29 06:19:16;;;;;;;56.53;52.38;;;;;;;12.37;100.00;101962.88;4952839;29;20054;-79
2021/09/29 06:21:43;;;;;;;61.45;57.25;;;;;;;12.48;100.00;101966.03;4953511;29;20086;-82
2021/09/29 06:24:11;;;;;;;61.42;56.97;;;;;;;12.24;100.00;101964.53;4952851;29;20051;-80
2021/09/29 06:26:38;;;;;;;60.20;55.97;;;;;;;12.15;100.00;101969.13;4952964;29;20138;-80
2021/09/29 06:29:05;;;;;;;58.42;53.85;;;;;;;12.22;100.00;101967.38;4952371;29;20405;-79
2021/09/29 06:31:31;;;;;;;55.20;51.25;;;;;;;12.27;100.00;101970.31;4952826;29;20047;-79
2021/09/29 06:33:58;;;;;;;56.83;52.88;;;;;;;12.78;100.00;101969.44;4953007;29;20514;-79
2021/09/29 06:36:26;;;;;;;54.60;50.53;;;;;;;12.44;100.00;101964.78;4954321;29;20058;-79
2021/09/29 06:38:53;;;;;;;53.25;48.88;;;;;;;12.41;100.00;101970.47;4953149;29;20456;-79
2021/09/29 06:41:20;;;;;;;58.15;53.67;;;;;;;12.22;100.00;101969.22;4953182;29;20063;-79
2021/09/29 06:43:47;;;;;;;55.55;51.00;;;;;;;12.29;100.00;101970.97;4952351;28;20460;-79
2021/09/29 06:46:13;;;;;;;64.43;59.53;;;;;;;12.23;100.00;101965.56;4944943;29;20051;-79
2021/09/29 06:48:42;;;;;;;64.55;60.15;;;;;;;12.26;100.00;101974.00;4953032;29;20141;-80
2021/09/29 06:51:09;;;;;;;63.78;59.05;;;;;;;12.36;100.00;101977.19;4953802;29;20110;-78
2021/09/29 06:53:37;;;;;;;60.00;55.65;;;;;;;12.33;100.00;101985.53;4953060;29;20055;-79
2021/09/29 06:56:06;;;;;;;56.63;52.70;;;;;;;12.66;100.00;101985.09;4953006;29;20047;-82
2021/09/29 06:58:34;;;;;;;55.05;50.75;;;;;;;12.44;100.00;101983.44;4944172;29;20146;-81
2021/09/29 07:01:01;;;;;;;56.17;51.72;;;;;;;12.45;100.00;101977.91;4953738;29;20503;-78
2021/09/29 07:03:27;;;;;;;57.72;53.63;;;;;;;12.58;100.00;101982.53;4952582;29;20066;-78
2021/09/29 07:05:55;;;;;;;59.53;54.80;;;;;;;12.64;100.00;101989.78;4954641;29;20113;-79
2021/09/29 07:08:22;;;;;;;69.47;64.63;;;;;;;12.75;100.00;102002.63;4953965;29;20051;-82
2021/09/29 07:10:50;;;;;;;60.40;56.13;;;;;;;12.64;100.00;102000.44;4953137;29;20487;-79
2021/09/29 07:13:17;;;;;;;61.15;56.25;;;;;;;12.60;100.00;101997.34;4953070;29;20404;-78
2021/09/29 07:15:44;;;;;;;58.33;54.15;;;;;;;12.64;100.00;101992.44;4954351;29;20471;-80
2021/09/29 07:18:11;;;;;;;60.53;56.15;;;;;;;12.68;100.00;101993.75;4953290;29;20063;-79
2021/09/29 07:20:38;;;;;;;59.00;54.63;;;;;;;12.55;100.00;101996.25;4953487;29;20138;-80
2021/09/29 07:23:06;;;;;;;58.67;54.58;;;;;;;12.63;100.00;101995.31;4954162;29;20062;-78
2021/09/29 07:25:32;;;;;;;64.15;59.78;;;;;;;12.74;100.00;101995.66;4954168;29;20055;-78
2021/09/29 07:28:01;;;;;;;58.33;53.95;;;;;;;12.90;100.00;102002.56;4953790;29;20059;-78
2021/09/29 07:30:28;;;;;;;59.75;55.53;;;;;;;13.93;100.00;102000.34;4952623;29;20051;-79
2021/09/29 07:32:56;;;;;;;55.10;50.90;;;;;;;12.88;100.00;102003.78;4955149;29;20062;-79
2021/09/29 07:35:23;;;;;;;59.08;55.05;;;;;;;12.90;100.00;102007.91;4954095;29;20047;-78
2021/09/29 07:37:50;;;;;;;61.85;57.45;;;;;;;13.08;100.00;102012.81;4954233;29;20058;-79
2021/09/29 07:40:17;;;;;;;56.67;52.78;;;;;;;12.81;100.00;102007.19;4953320;29;20476;-80
2021/09/29 07:42:44;;;;;;;54.15;50.35;;;;;;;12.83;100.00;102015.84;4954731;29;20051;-78
2021/09/29 07:45:12;;;;;;;54.05;50.40;;;;;;;13.00;100.00;102013.75;4954138;29;20507;-80
2021/09/29 07:47:39;;;;;;;57.83;53.75;;;;;;;13.14;100.00;102014.72;4953774;29;20557;-81
2021/09/29 07:50:08;;;;;;;51.78;47.95;;;;;;;12.82;100.00;102016.84;4953760;29;20047;-77
2021/09/29 07:52:36;;;;;;;62.08;57.70;;;;;;;12.89;100.00;102014.28;4953556;29;20047;-80
2021/09/29 07:55:03;;;;;;;50.88;47.17;;;;;;;12.85;100.00;102018.31;4954666;28;20059;-80
2021/09/29 07:57:30;;;;;;;55.45;51.55;;;;;;;12.99;100.00;102017.44;4957115;29;20053;-83
2021/09/29 07:59:57;;;;;;;54.47;50.58;;;;;;;13.06;100.00;102015.66;4957538;29;20051;-79
2021/09/29 08:02:31;;;;;;;51.35;47.70;;;;;;;13.23;100.00;102018.91;4957057;28;20070;-79
2021/09/29 08:05:01;;;;;;;52.35;48.65;;;;;;;13.39;100.00;102019.66;4940687;29;20044;-78
2021/09/29 08:07:28;;;;;;;48.75;45.00;;;;;;;13.22;100.00;102011.06;4958510;29;20047;-80
2021/09/29 08:09:55;;;;;;;48.47;44.70;;;;;;;13.22;100.00;102016.41;4957177;29;20118;-80
2021/09/29 08:12:22;;;;;;;43.47;39.72;;;;;;;13.59;100.00;102019.84;4957354;29;20047;-80
2021/09/29 08:14:49;;;;;;;45.35;41.95;;;;;;;13.36;100.00;102010.19;4956848;29;20051;-79
2021/09/29 08:17:16;;;;;;;45.17;41.88;;;;;;;13.33;100.00;102010.59;4957260;29;20377;-80
2021/09/29 08:19:44;;;;;;;43.20;39.83;;;;;;;13.58;100.00;102013.66;4957020;29;20070;-80
2021/09/29 08:22:12;;;;;;;42.45;39.20;;;;;;;13.50;100.00;102014.63;4958317;29;20160;-79
2021/09/29 08:24:44;;;;;;;43.35;39.90;;;;;;;13.41;100.00;102014.97;4957045;29;20082;-79
2021/09/29 08:27:17;;;;;;;42.95;39.72;;;;;;;13.54;100.00;102023.06;4956852;29;20047;-80
2021/09/29 08:32:33;;;;;;;43.00;39.88;;;;;;;13.72;100.00;102026.09;4952843;29;20110;-78
2021/09/29 08:35:07;;;;;;;42.05;38.90;;;;;;;13.68;100.00;102019.50;4952676;29;20059;-78
2021/09/29 08:37:39;;;;;;;41.88;38.80;;;;;;;13.73;100.00;102018.88;4956983;29;20138;-77
2021/09/29 08:40:13;;;;;;;45.33;42.20;;;;;;;13.75;100.00;102020.34;4955442;29;20051;-80
2021/09/29 08:42:47;;;;;;;42.72;39.60;;;;;;;14.30;100.00;102020.44;4957766;29;20055;-80
2021/09/29 08:45:22;;;;;;;41.38;38.38;;;;;;;14.02;100.00;102025.03;4957445;29;20051;-79
2021/09/29 08:47:53;;;;;;;45.22;42.20;;;;;;;13.97;100.00;102023.78;4957020;29;20051;-79
2021/09/29 08:50:28;;;;;;;42.20;39.13;;;;;;;14.06;100.00;102027.09;4956829;29;20059;-79
2021/09/29 09:15:51;;;;;;;36.47;33.85;;;;;;;15.88;100.00;102012.84;4957223;29;20111;-79
2021/09/29 09:18:18;;;;;;;34.87;32.33;;;;;;;14.68;100.00;102012.00;4956260;29;20051;-79
2021/09/29 09:20:50;;;;;;;35.72;33.05;;;;;;;14.51;100.00;102018.69;4955464;29;20826;-77
2021/09/29 09:23:18;;;;;;;35.10;32.50;;;;;;;14.70;100.00;102020.63;4955782;29;20058;-79
2021/09/29 09:25:46;;;;;;;36.17;33.67;;;;;;;15.45;100.00;102017.84;4955368;29;20043;-79
2021/09/29 09:28:25;;;;;;;36.38;33.50;;;;;;;14.57;100.00;102023.25;4955763;29;20122;-78
2021/09/29 09:30:52;;;;;;;34.20;31.60;;;;;;;14.66;100.00;102025.56;4952770;29;20540;-78
2021/09/29 09:33:26;;;;;;;35.55;32.67;;;;;;;14.46;100.00;102016.59;4955616;29;20372;-77
2021/09/29 09:35:53;;;;;;;35.28;32.67;;;;;;;14.75;100.00;102028.06;4955911;29;20055;-78
2021/09/29 09:38:25;;;;;;;35.30;32.72;;;;;;;14.89;100.00;102021.72;4955826;29;20047;-77
2021/09/29 09:40:56;;;;;;;35.60;32.47;;;;;;;14.83;100.00;102026.03;4955081;29;20074;-78
2021/09/29 09:43:28;;;;;;;36.42;33.67;;;;;;;14.75;100.00;102022.69;4955127;29;20043;-78
2021/09/29 09:45:56;;;;;;;36.35;33.85;;;;;;;14.97;100.00;102031.38;4955555;29;20062;-79
2021/09/29 09:48:26;;;;;;;35.50;32.65;;;;;;;15.35;100.00;102024.44;4951732;29;20086;-80
2021/09/29 09:51:05;;;;;;;35.35;32.85;;;;;;;15.09;100.00;102030.56;4956709;29;20452;-79
2021/09/29 09:53:34;;;;;;;37.42;34.60;;;;;;;14.99;100.00;102026.66;4955552;29;20073;-80
2021/09/29 09:56:13;;;;;;;38.63;35.53;;;;;;;15.18;100.00;102033.06;4955086;29;20054;-79
2021/09/29 09:58:46;;;;;;;37.55;35.03;;;;;;;14.81;100.00;102029.91;4951867;29;20416;-77
2021/09/29 10:01:16;;;;;;;39.47;36.55;;;;;;;15.17;100.00;102034.09;4950773;29;20471;-78
2021/09/29 10:03:43;;;;;;;38.60;35.35;;;;;;;15.17;100.00;102032.25;4954537;29;20555;-79
2021/09/29 10:06:10;;;;;;;37.97;35.00;;;;;;;14.95;100.00;102023.59;4956068;29;20424;-79
2021/09/29 10:08:40;;;;;;;36.97;34.40;;;;;;;14.90;100.00;102028.69;4955070;29;20058;-79
2021/09/29 10:11:08;;;;;;;42.00;38.78;;;;;;;15.29;100.00;102030.59;4952414;29;20073;-79
2021/09/29 10:14:05;;;;;;;39.25;36.83;;;;;;;15.37;100.00;102028.75;4954793;29;20106;-77
2021/09/29 10:27:53;;;;;;;38.35;35.90;;;;;;;15.24;100.00;102026.91;4955326;29;20050;-82
2021/09/29 10:30:30;;;;;;;39.85;37.05;;;;;;;15.31;100.00;102027.72;4955958;29;20078;-79
2021/09/29 10:33:00;;;;;;;41.33;38.38;;;;;;;15.16;100.00;102032.44;4955877;29;20055;-78
2021/09/29 10:35:42;;;;;;;41.83;39.03;;;;;;;15.25;100.00;102036.56;4955084;29;20130;-79
2021/09/29 10:41:11;;;;;;;40.88;38.17;;;;;;;15.40;100.00;102026.50;4893368;29;20156;-80
2021/09/29 10:43:58;;;;;;;41.30;38.78;;;;;;;15.43;100.00;102031.44;4946253;29;20059;-79
2021/09/29 10:46:35;;;;;;;39.63;36.92;;;;;;;15.37;100.00;102024.25;4947273;29;20483;-79
2021/09/29 10:49:12;;;;;;;37.88;34.95;;;;;;;15.26;100.00;102027.53;4946606;29;20154;-77
2021/09/29 11:12:06;;;;;;;46.22;43.00;;;;;;;15.47;100.00;102034.53;4954164;28;20090;-78
2021/09/29 11:28:48;;;;;;;43.72;40.65;;;;;;;15.95;100.00;102024.41;4953810;29;19925;-78
2021/09/29 11:31:19;;;;;;;44.00;41.10;;;;;;;15.94;100.00;102025.41;4946978;29;20051;-79
2021/09/29 11:33:55;;;;;;;40.45;37.60;;;;;;;15.85;100.00;102015.13;4957705;29;20047;-80
2021/09/29 11:36:30;;;;;;;40.45;37.42;;;;;;;15.91;100.00;102009.75;4959297;29;20059;-77
2021/09/29 12:09:41;;;;;;;34.92;31.90;;;;;;;16.01;100.00;101999.44;4957385;29;20054;-78
2021/09/29 12:12:18;;;;;;;33.85;31.17;;;;;;;16.10;100.00;101996.53;4954412;29;20051;-80
2021/09/29 12:14:46;;;;;;;34.03;31.23;;;;;;;16.03;100.00;102004.59;4954311;29;20129;-79
2021/09/29 12:17:13;;;;;;;34.35;31.75;;;;;;;16.01;100.00;102010.16;4957566;29;20385;-78
2021/09/29 12:19:41;;;;;;;35.17;32.58;;;;;;;16.14;100.00;101998.56;4957200;29;20377;-78
2021/09/29 12:22:17;;;;;;;36.40;33.45;;;;;;;16.21;100.00;102003.91;4958061;29;20059;-79
2021/09/29 12:24:46;;;;;;;34.35;31.77;;;;;;;16.25;100.00;102002.47;4956873;29;20512;-79
2021/09/29 12:27:22;;;;;;;35.60;32.83;;;;;;;16.47;100.00;101995.75;4956757;28;20091;-79
2021/09/29 12:29:51;;;;;;;38.35;35.60;;;;;;;16.50;100.00;101999.88;4956280;29;20047;-79
2021/09/29 12:35:32;;;;;;;32.97;30.27;;;;;;;16.26;100.00;102004.09;4878029;29;20060;-78
2021/09/29 12:38:01;;;;;;;34.40;31.60;;;;;;;16.18;100.00;102002.47;4880134;29;20197;-79
2021/09/29 12:40:29;;;;;;;36.28;33.42;;;;;;;16.35;100.00;102007.38;4921423;29;20513;-78
2021/09/29 12:42:59;;;;;;;37.05;34.25;;;;;;;16.39;100.00;101993.31;4956162;28;20047;-78
2021/09/29 12:45:28;;;;;;;39.90;37.00;;;;;;;16.26;100.00;101994.19;4955244;29;20109;-79
2021/09/29 12:47:57;;;;;;;36.03;33.70;;;;;;;16.72;100.00;101981.59;4957556;29;20058;-79
2021/09/29 12:50:29;;;;;;;33.25;31.05;;;;;;;16.79;100.00;101978.88;4956048;29;20051;-79
2021/09/29 12:53:02;;;;;;;37.13;34.38;;;;;;;16.74;100.00;101984.06;4956432;29;20456;-79
2021/09/29 12:55:35;;;;;;;34.50;31.70;;;;;;;16.87;100.00;101982.13;4953409;29;20051;-78
2021/09/29 12:58:02;;;;;;;35.10;31.67;;;;;;;16.64;100.00;101977.31;4952542;29;20063;-78